עמוד ראשי
METAR-TAF:

METAR-TAF

שדות תעופה :

Talara, פרו

קו רוחב: 04-34S, קו אורך: 081-15W, גובה: 85מטר

תצפית מזג אוויר נוכחית

הדו"ח נערך לפני 3 שעות ו 19דקות, בשעה 02:00 UTC
טמפרטורת 19 צלסיוס
לחות 88%
לחץ 1010 hPa
ראות 10 קילומטר או יותר
ללא עננים שבסיסם נמוך מ 5000 רגל או קומולונימבוס

METAR: SPYL 200200Z /////KT CAVOK 19/17 Q1010 RMK PP000

זמן: 00:19 (05:19 UTC)

תחזית

הדו"ח נערך לפני 6 שעות ו 19דקות, בשעה 23:00 UTC
תחזית בתוקף מ 20 ב 00 UTC עד 20 ב 24 UTC
רוח 17קשר מכיוון דרום
ראות 10 קילומטר או יותר
ללא עננים שבסיסם נמוך מ 5000 רגל או קומולונימבוס

TAF: SPYL 192300Z 2000/2024 18017KT CAVOK TX28/2019Z TN16/2009Z

תצפיות ותחזיות מזג אוויר לגבי יותר מ- 4,000 שדות תעופה ברחבי העולם. דוחות METAR ו- TAF.

התחנות הזמינות מסומנות בנקודות צהובות ואדומות על גבי המפה.

העבר את העכבר לנקודה הצבעונית על מנת לראות את שם התחנה.

לאחר מכן, לחץ כדי לראות את תוכן ואת תחזיות מזג האוויר.

כדי לשנות את המפה: לחץ על הכפתורים הירוקים עם הפלוס השחור כדי להתקרב; על הכפתור הירוק עם המקף כדי להתרחק; או בחיצים הירוקים למפות סמוכות.


METAR-TAF: